sensor_id;sensor_type;location;lat;lon;timestamp;P1;durP1;ratioP1;P2;durP2;ratioP2
62931;SDS011;49037;41.898;25.004;2023-06-14T00:02:24;12.57;;;7.82;;
62931;SDS011;49037;41.898;25.004;2023-06-14T00:04:58;14.63;;;7.88;;
62931;SDS011;49037;41.898;25.004;2023-06-14T00:07:36;12.98;;;7.22;;
62931;SDS011;49037;41.898;25.004;2023-06-14T00:10:08;11.88;;;7.68;;
62931;SDS011;49037;41.898;25.004;2023-06-14T00:40:50;11.38;;;8.10;;
62931;SDS011;49037;41.898;25.004;2023-06-14T00:43:37;10.65;;;6.93;;
62931;SDS011;49037;41.898;25.004;2023-06-14T00:46:50;10.80;;;7.40;;
62931;SDS011;49037;41.898;25.004;2023-06-14T00:49:16;9.88;;;6.80;;
62931;SDS011;49037;41.898;25.004;2023-06-14T00:51:43;16.33;;;7.53;;
62931;SDS011;49037;41.898;25.004;2023-06-14T00:54:23;11.88;;;8.00;;
62931;SDS011;49037;41.898;25.004;2023-06-14T00:56:54;12.43;;;7.53;;
62931;SDS011;49037;41.898;25.004;2023-06-14T01:09:03;12.52;;;8.15;;
62931;SDS011;49037;41.898;25.004;2023-06-14T01:12:04;11.93;;;7.53;;
62931;SDS011;49037;41.898;25.004;2023-06-14T01:22:26;11.07;;;7.05;;
62931;SDS011;49037;41.898;25.004;2023-06-14T01:50:03;10.68;;;7.07;;
62931;SDS011;49037;41.898;25.004;2023-06-14T01:52:44;9.00;;;6.50;;
62931;SDS011;49037;41.898;25.004;2023-06-14T01:55:09;10.23;;;7.00;;
62931;SDS011;49037;41.898;25.004;2023-06-14T01:57:38;11.07;;;7.28;;
62931;SDS011;49037;41.898;25.004;2023-06-14T02:00:23;11.55;;;7.35;;
62931;SDS011;49037;41.898;25.004;2023-06-14T02:17:08;12.02;;;8.38;;
62931;SDS011;49037;41.898;25.004;2023-06-14T02:20:06;13.27;;;7.63;;
62931;SDS011;49037;41.898;25.004;2023-06-14T02:50:59;11.10;;;7.53;;
62931;SDS011;49037;41.898;25.004;2023-06-14T02:53:51;14.43;;;7.32;;
62931;SDS011;49037;41.898;25.004;2023-06-14T02:56:22;10.95;;;7.10;;
62931;SDS011;49037;41.898;25.004;2023-06-14T02:59:01;10.68;;;6.78;;
62931;SDS011;49037;41.898;25.004;2023-06-14T03:01:32;10.07;;;7.10;;
62931;SDS011;49037;41.898;25.004;2023-06-14T03:04:05;11.98;;;7.50;;
62931;SDS011;49037;41.898;25.004;2023-06-14T03:18:58;15.37;;;8.87;;
62931;SDS011;49037;41.898;25.004;2023-06-14T06:50:57;22.50;;;16.58;;
62931;SDS011;49037;41.898;25.004;2023-06-14T06:53:56;25.10;;;17.00;;
62931;SDS011;49037;41.898;25.004;2023-06-14T07:16:23;18.55;;;13.55;;
62931;SDS011;49037;41.898;25.004;2023-06-14T07:18:51;20.92;;;14.93;;
62931;SDS011;49037;41.898;25.004;2023-06-14T07:21:42;21.42;;;14.48;;
62931;SDS011;49037;41.898;25.004;2023-06-14T07:24:08;25.02;;;15.25;;
62931;SDS011;49037;41.898;25.004;2023-06-14T12:18:41;10.70;;;8.20;;
62931;SDS011;49037;41.898;25.004;2023-06-14T12:21:09;11.73;;;8.50;;
62931;SDS011;49037;41.898;25.004;2023-06-14T12:39:46;9.85;;;8.13;;
62931;SDS011;49037;41.898;25.004;2023-06-14T12:42:16;10.52;;;7.93;;
62931;SDS011;49037;41.898;25.004;2023-06-14T12:44:57;9.77;;;7.50;;
62931;SDS011;49037;41.898;25.004;2023-06-14T12:48:23;10.70;;;8.02;;
62931;SDS011;49037;41.898;25.004;2023-06-14T13:06:41;11.20;;;8.32;;
62931;SDS011;49037;41.898;25.004;2023-06-14T13:58:06;9.30;;;6.85;;
62931;SDS011;49037;41.898;25.004;2023-06-14T14:18:46;7.80;;;6.13;;
62931;SDS011;49037;41.898;25.004;2023-06-14T14:25:48;5.72;;;5.10;;
62931;SDS011;49037;41.898;25.004;2023-06-14T14:28:58;6.65;;;5.80;;
62931;SDS011;49037;41.898;25.004;2023-06-14T14:48:42;7.82;;;5.72;;
62931;SDS011;49037;41.898;25.004;2023-06-14T14:51:33;7.60;;;5.35;;
62931;SDS011;49037;41.898;25.004;2023-06-14T14:57:33;7.43;;;5.47;;
62931;SDS011;49037;41.898;25.004;2023-06-14T15:00:09;8.00;;;6.03;;
62931;SDS011;49037;41.898;25.004;2023-06-14T15:02:38;6.50;;;5.80;;
62931;SDS011;49037;41.898;25.004;2023-06-14T15:05:06;6.57;;;5.43;;
62931;SDS011;49037;41.898;25.004;2023-06-14T15:07:32;7.25;;;5.60;;
62931;SDS011;49037;41.898;25.004;2023-06-14T15:09:58;6.50;;;5.05;;
62931;SDS011;49037;41.898;25.004;2023-06-14T15:13:51;6.95;;;5.05;;
62931;SDS011;49037;41.898;25.004;2023-06-14T15:16:17;6.47;;;5.18;;
62931;SDS011;49037;41.898;25.004;2023-06-14T15:18:42;6.15;;;4.97;;
62931;SDS011;49037;41.898;25.004;2023-06-14T15:21:07;7.93;;;5.15;;
62931;SDS011;49037;41.898;25.004;2023-06-14T15:23:33;6.38;;;5.43;;
62931;SDS011;49037;41.898;25.004;2023-06-14T15:26:06;10.43;;;5.60;;
62931;SDS011;49037;41.898;25.004;2023-06-14T15:28:34;6.22;;;5.38;;
62931;SDS011;49037;41.898;25.004;2023-06-14T15:31:38;6.63;;;5.45;;
62931;SDS011;49037;41.898;25.004;2023-06-14T15:34:03;8.32;;;5.80;;
62931;SDS011;49037;41.898;25.004;2023-06-14T15:36:29;9.68;;;6.00;;
62931;SDS011;49037;41.898;25.004;2023-06-14T15:38:57;12.23;;;5.70;;
62931;SDS011;49037;41.898;25.004;2023-06-14T15:48:29;8.27;;;6.07;;
